Time;durP1;ratioP1;P1;durP2;ratioP2;P2;SDS_P1;SDS_P2;PMS_P1;PMS_P2;Temp;Humidity;BMP_temperature;BMP_pressure;BME280_temperature;BME280_humidity;BME280_pressure;Samples;Min_cycle;Max_cycle;Signal;HPM_P1;HPM_P2
2022/07/12 00:00:50;;;;;;;;;;;15.00;99.90;;;;;;5120260;28;20022;-73
2022/07/12 00:03:16;;;;;;;;;;;15.00;99.90;;;;;;5114696;28;19955;-73
2022/07/12 00:05:43;;;;;;;;;;;15.00;99.90;;;;;;5121704;28;19990;-73
2022/07/12 00:08:10;;;;;;;;;;;14.90;99.90;;;;;;5125682;28;19934;-73
2022/07/12 00:10:38;;;;;;;;;;;14.90;99.90;;;;;;5125374;28;19983;-73
2022/07/12 00:13:04;;;;;;;;;;;14.90;99.90;;;;;;5124100;28;19998;-74
2022/07/12 00:15:31;;;;;;;;;;;14.90;99.90;;;;;;5122469;28;19926;-73
2022/07/12 00:17:58;;;;;;;;;;;14.90;99.90;;;;;;5109846;28;19920;-73
2022/07/12 00:20:24;;;;;;;;;;;14.80;99.90;;;;;;5125164;28;19955;-73
2022/07/12 00:22:51;;;;;;;;;;;14.80;99.90;;;;;;5124799;28;20021;-73
2022/07/12 00:25:18;;;;;;;;;;;14.80;99.90;;;;;;5124491;28;19920;-73
2022/07/12 00:27:49;;;;;;;;;;;14.70;99.90;;;;;;5104814;28;19920;-73
2022/07/12 00:30:41;;;;;;;;;;;14.70;99.90;;;;;;5111065;28;20214;-73
2022/07/12 00:33:08;;;;;;;;;;;14.70;99.90;;;;;;5096208;28;19920;-72
2022/07/12 00:35:35;;;;;;;;;;;14.70;99.90;;;;;;5107569;28;20237;-72
2022/07/12 00:38:01;;;;;;;;;;;14.60;99.90;;;;;;5124899;28;19919;-72
2022/07/12 00:40:28;;;;;;;;;;;14.60;99.90;;;;;;5125228;28;19978;-72
2022/07/12 00:42:56;;;;;;;;;;;14.60;99.90;;;;;;5124010;28;19983;-72
2022/07/12 00:45:23;;;;;;;;;;;14.60;99.90;;;;;;5123756;28;19919;-72
2022/07/12 00:47:51;;;;;;;;;;;14.50;99.90;;;;;;5114233;28;20164;-72
2022/07/12 00:50:18;;;;;;;;;;;14.50;99.90;;;;;;5124743;28;19920;-72
2022/07/12 00:58:53;;;;;;;;;;;14.40;99.90;;;;;;5110759;28;19946;-71
2022/07/12 01:01:20;;;;;;;;;;;14.40;99.90;;;;;;5123491;28;19920;-72
2022/07/12 01:03:46;;;;;;;;;;;14.30;99.90;;;;;;5115022;28;20249;-71
2022/07/12 01:06:13;;;;;;;;;;;14.30;99.90;;;;;;5119931;28;20269;-72
2022/07/12 01:08:40;;;;;;;;;;;14.30;99.90;;;;;;5112756;28;20119;-72
2022/07/12 01:11:07;;;;;;;;;;;14.30;99.90;;;;;;5123956;28;19980;-72
2022/07/12 01:13:35;;;;;;;;;;;14.30;99.90;;;;;;5118040;28;20155;-72
2022/07/12 01:16:03;;;;;;;;;;;14.20;99.90;;;;;;5124347;28;19961;-72
2022/07/12 01:18:30;;;;;;;;;;;14.20;99.90;;;;;;5122370;28;19960;-72
2022/07/12 01:20:56;;;;;;;;;;;14.20;99.90;;;;;;5123853;28;19966;-72
2022/07/12 01:23:25;;;;;;;;;;;14.10;99.90;;;;;;5123732;28;19926;-72
2022/07/12 01:25:52;;;;;;;;;;;14.10;99.90;;;;;;5124126;28;19990;-72
2022/07/12 01:28:19;;;;;;;;;;;14.00;99.90;;;;;;5123455;28;19955;-72
2022/07/12 01:30:47;;;;;;;;;;;14.00;99.90;;;;;;5124242;28;19955;-72
2022/07/12 01:33:14;;;;;;;;;;;14.00;99.90;;;;;;5120443;28;19962;-72
2022/07/12 01:35:41;;;;;;;;;;;13.80;99.90;;;;;;5119560;28;19962;-72
2022/07/12 01:38:08;;;;;;;;;;;13.80;99.90;;;;;;5123600;28;20112;-72
2022/07/12 01:40:36;;;;;;;;;;;13.70;99.90;;;;;;5121905;28;19920;-72
2022/07/12 01:43:03;;;;;;;;;;;13.70;99.90;;;;;;5123634;28;20195;-71
2022/07/12 01:45:30;;;;;;;;;;;13.60;99.90;;;;;;5123695;28;19987;-72
2022/07/12 01:47:58;;;;;;;;;;;13.50;99.90;;;;;;5120791;28;20130;-72
2022/07/12 01:50:25;;;;;;;;;;;13.50;99.90;;;;;;5119301;28;19920;-72
2022/07/12 01:52:52;;;;;;;;;;;13.50;99.90;;;;;;5123359;28;19982;-72
2022/07/12 01:55:19;;;;;;;;;;;13.40;99.90;;;;;;5123539;28;19920;-72
2022/07/12 01:57:47;;;;;;;;;;;13.40;99.90;;;;;;5123644;28;19923;-72
2022/07/12 02:00:14;;;;;;;;;;;13.30;99.90;;;;;;5121457;28;20169;-72
2022/07/12 02:02:41;;;;;;;;;;;13.30;99.90;;;;;;5117318;28;20215;-72
2022/07/12 02:05:08;;;;;;;;;;;13.30;99.90;;;;;;5111930;28;19920;-72
2022/07/12 02:07:35;;;;;;;;;;;13.30;99.90;;;;;;5123684;28;19962;-72
2022/07/12 02:10:01;;;;;;;;;;;13.30;99.90;;;;;;5120184;28;19951;-72
2022/07/12 02:12:28;;;;;;;;;;;13.20;99.90;;;;;;5127198;28;19935;-72
2022/07/12 02:14:56;;;;;;;;;;;13.20;99.90;;;;;;5122830;28;19984;-71
2022/07/12 02:17:22;;;;;;;;;;;13.20;99.90;;;;;;5127411;28;20199;-72
2022/07/12 02:19:49;;;;;;;;;;;13.20;99.90;;;;;;5126369;28;19979;-71
2022/07/12 02:22:16;;;;;;;;;;;13.20;99.90;;;;;;5126941;28;19982;-72
2022/07/12 02:24:42;;;;;;;;;;;13.20;99.90;;;;;;5113974;28;19983;-71
2022/07/12 02:27:09;;;;;;;;;;;13.20;99.90;;;;;;5126860;28;19986;-71
2022/07/12 02:29:36;;;;;;;;;;;13.20;99.90;;;;;;5126156;28;19979;-71
2022/07/12 02:32:04;;;;;;;;;;;13.10;99.90;;;;;;5127278;28;19920;-72
2022/07/12 02:34:31;;;;;;;;;;;13.10;99.90;;;;;;5121591;28;19995;-71
2022/07/12 02:36:58;;;;;;;;;;;13.10;99.90;;;;;;5127507;28;19920;-72
2022/07/12 02:39:24;;;;;;;;;;;13.10;99.90;;;;;;5126372;28;19983;-72
2022/07/12 02:41:51;;;;;;;;;;;13.10;99.90;;;;;;5126996;28;19926;-72
2022/07/12 02:44:18;;;;;;;;;;;13.00;99.90;;;;;;5126687;28;19920;-71
2022/07/12 02:46:44;;;;;;;;;;;13.00;99.90;;;;;;5124660;28;20110;-71
2022/07/12 02:49:13;;;;;;;;;;;12.90;99.90;;;;;;5113697;28;19924;-71
2022/07/12 02:51:40;;;;;;;;;;;12.90;99.90;;;;;;5119716;28;19920;-71
2022/07/12 02:54:06;;;;;;;;;;;12.90;99.90;;;;;;5126394;28;19919;-71
2022/07/12 02:56:33;;;;;;;;;;;12.80;99.90;;;;;;5126599;28;19982;-71
2022/07/12 02:58:59;;;;;;;;;;;12.80;99.90;;;;;;5125869;28;19927;-71
2022/07/12 03:01:26;;;;;;;;;;;12.80;99.90;;;;;;5126619;28;19930;-71
2022/07/12 03:03:53;;;;;;;;;;;12.80;99.90;;;;;;5122646;28;19982;-71
2022/07/12 03:06:21;;;;;;;;;;;12.70;99.90;;;;;;5126355;28;20151;-72
2022/07/12 03:08:47;;;;;;;;;;;12.70;99.90;;;;;;5121476;28;19955;-71
2022/07/12 03:11:14;;;;;;;;;;;12.70;99.90;;;;;;5124333;28;19954;-72
2022/07/12 03:13:40;;;;;;;;;;;12.60;99.90;;;;;;5125897;28;19930;-71
2022/07/12 03:16:08;;;;;;;;;;;12.60;99.90;;;;;;5126018;28;20166;-71
2022/07/12 03:18:34;;;;;;;;;;;12.60;99.90;;;;;;5124740;28;19920;-71
2022/07/12 03:21:01;;;;;;;;;;;12.60;99.90;;;;;;5114352;28;19963;-71
2022/07/12 03:23:29;;;;;;;;;;;12.50;99.90;;;;;;5125994;28;20271;-72
2022/07/12 03:25:56;;;;;;;;;;;12.50;99.90;;;;;;5125895;28;20249;-72
2022/07/12 03:28:22;;;;;;;;;;;12.50;99.90;;;;;;5126340;28;20128;-72
2022/07/12 03:30:49;;;;;;;;;;;12.50;99.90;;;;;;5125495;28;20167;-72
2022/07/12 03:33:16;;;;;;;;;;;12.50;99.90;;;;;;5124884;28;20203;-72
2022/07/12 03:35:42;;;;;;;;;;;12.50;99.90;;;;;;5125760;28;19927;-73
2022/07/12 03:38:09;;;;;;;;;;;12.40;99.90;;;;;;5125546;28;19920;-72
2022/07/12 03:40:37;;;;;;;;;;;12.40;99.90;;;;;;5108098;28;19982;-71
2022/07/12 03:43:03;;;;;;;;;;;12.30;99.90;;;;;;5124329;28;19920;-72
2022/07/12 03:45:30;;;;;;;;;;;12.30;99.90;;;;;;5125809;28;19920;-72
2022/07/12 03:47:57;;;;;;;;;;;12.30;99.90;;;;;;5123113;28;19958;-72
2022/07/12 03:50:25;;;;;;;;;;;12.30;99.90;;;;;;5124697;28;20116;-71
2022/07/12 03:52:52;;;;;;;;;;;12.30;99.90;;;;;;5124956;28;19919;-71
2022/07/12 03:55:19;;;;;;;;;;;12.30;99.90;;;;;;5125469;28;19951;-71
2022/07/12 03:57:49;;;;;;;;;;;12.30;99.90;;;;;;5125733;28;19959;-71
2022/07/12 04:00:15;;;;;;;;;;;12.30;99.90;;;;;;5123431;28;19986;-72
2022/07/12 04:02:43;;;;;;;;;;;12.20;99.90;;;;;;5118665;28;19991;-72
2022/07/12 04:05:10;;;;;;;;;;;12.20;99.90;;;;;;5125089;28;19920;-71
2022/07/12 04:07:37;;;;;;;;;;;12.20;99.90;;;;;;5122800;28;19963;-72
2022/07/12 04:10:04;;;;;;;;;;;12.20;99.90;;;;;;5114475;28;19947;-72
2022/07/12 04:12:30;;;;;;;;;;;12.20;99.90;;;;;;5124917;28;19987;-72
2022/07/12 04:14:58;;;;;;;;;;;12.20;99.90;;;;;;5124527;28;19951;-72
2022/07/12 04:17:25;;;;;;;;;;;12.20;99.90;;;;;;5122957;28;19955;-72
2022/07/12 04:19:51;;;;;;;;;;;12.30;99.90;;;;;;5118636;28;19990;-72
2022/07/12 04:22:19;;;;;;;;;;;12.30;99.90;;;;;;5116555;28;19920;-72
2022/07/12 04:24:46;;;;;;;;;;;12.30;99.90;;;;;;5125038;28;19947;-72
2022/07/12 04:27:12;;;;;;;;;;;12.30;99.90;;;;;;5118681;28;19991;-72
2022/07/12 04:29:39;;;;;;;;;;;12.30;99.90;;;;;;5123419;28;20264;-72
2022/07/12 04:32:07;;;;;;;;;;;12.30;99.90;;;;;;5124550;28;19920;-72
2022/07/12 04:34:34;;;;;;;;;;;12.30;99.90;;;;;;5124527;28;19942;-71
2022/07/12 04:37:01;;;;;;;;;;;12.30;99.90;;;;;;5124978;28;20100;-71
2022/07/12 04:39:27;;;;;;;;;;;12.30;99.90;;;;;;5123755;28;20092;-71
2022/07/12 04:41:54;;;;;;;;;;;12.30;99.90;;;;;;5125110;28;19928;-71
2022/07/12 04:44:20;;;;;;;;;;;12.40;99.90;;;;;;5115414;28;19982;-71
2022/07/12 04:46:47;;;;;;;;;;;12.40;99.90;;;;;;5124293;28;19924;-70
2022/07/12 04:49:15;;;;;;;;;;;12.50;99.90;;;;;;5124378;28;20143;-70
2022/07/12 04:51:42;;;;;;;;;;;12.50;99.90;;;;;;5125033;28;20168;-71
2022/07/12 04:54:09;;;;;;;;;;;12.60;99.90;;;;;;5124017;28;20230;-71
2022/07/12 04:56:35;;;;;;;;;;;12.70;99.90;;;;;;5124614;28;19983;-70
2022/07/12 04:59:02;;;;;;;;;;;12.80;99.90;;;;;;5113507;28;19927;-70
2022/07/12 05:01:29;;;;;;;;;;;12.90;99.90;;;;;;5111293;28;20155;-71
2022/07/12 05:03:56;;;;;;;;;;;13.00;99.90;;;;;;5125240;28;19959;-71
2022/07/12 05:06:24;;;;;;;;;;;13.10;99.90;;;;;;5125359;28;19958;-70
2022/07/12 05:08:50;;;;;;;;;;;13.20;99.90;;;;;;5124411;28;20214;-70
2022/07/12 05:11:17;;;;;;;;;;;13.30;99.90;;;;;;5136736;22;19990;-89
2022/07/12 05:13:55;;;;;;;;;;;13.40;99.90;;;;;;5122522;28;19929;-86
2022/07/12 05:16:22;;;;;;;;;;;13.50;99.90;;;;;;5105374;28;19935;-89
2022/07/12 05:18:49;;;;;;;;;;;13.70;99.90;;;;;;5108276;28;19927;-89
2022/07/12 05:21:15;;;;;;;;;;;13.80;99.90;;;;;;5128893;28;20237;-88
2022/07/12 05:23:43;;;;;;;;;;;13.90;99.90;;;;;;5109416;28;20224;-88
2022/07/12 05:26:10;;;;;;;;;;;14.00;99.90;;;;;;5097331;28;20127;-88
2022/07/12 05:28:37;;;;;;;;;;;14.10;99.90;;;;;;5107177;28;19928;-91
2022/07/12 05:31:04;;;;;;;;;;;14.30;99.90;;;;;;5131369;28;19907;-88
2022/07/12 05:33:30;;;;;;;;;;;14.40;99.90;;;;;;5139040;27;19941;-88
2022/07/12 05:35:57;;;;;;;;;;;14.50;99.90;;;;;;5138437;27;19920;-87
2022/07/12 05:38:25;;;;;;;;;;;14.60;99.90;;;;;;5135823;28;19920;-86
2022/07/12 05:40:53;;;;;;;;;;;14.70;99.90;;;;;;5113566;28;19927;-88
2022/07/12 05:43:20;;;;;;;;;;;14.80;99.90;;;;;;5107612;28;19946;-88
2022/07/12 05:45:47;;;;;;;;;;;14.90;99.90;;;;;;5107856;28;19928;-87
2022/07/12 05:48:14;;;;;;;;;;;15.00;99.90;;;;;;5107124;28;19927;-87
2022/07/12 05:50:41;;;;;;;;;;;15.10;99.90;;;;;;5087680;28;19943;-87
2022/07/12 05:53:22;;;;;;;;;;;15.20;99.90;;;;;;5090231;28;19940;-88
2022/07/12 05:55:49;;;;;;;;;;;15.40;99.90;;;;;;5090744;28;19931;-86
2022/07/12 05:58:17;;;;;;;;;;;15.50;99.90;;;;;;5086708;28;19920;-87
2022/07/12 06:03:24;;;;;;;;;;;15.80;99.90;;;;;;5035091;28;20108;-88
2022/07/12 06:05:51;;;;;;;;;;;15.90;99.90;;;;;;5085307;28;19948;-88
2022/07/12 06:08:18;;;;;;;;;;;16.00;99.90;;;;;;5105276;28;19920;-88
2022/07/12 06:10:45;;;;;;;;;;;16.00;99.90;;;;;;5089534;28;19946;-88
2022/07/12 06:13:14;;;;;;;;;;;16.10;99.90;;;;;;5106500;28;19944;-87
2022/07/12 06:15:42;;;;;;;;;;;16.10;99.90;;;;;;5106402;28;19939;-89
2022/07/12 06:18:08;;;;;;;;;;;16.20;99.90;;;;;;5107062;28;19955;-89
2022/07/12 06:20:35;;;;;;;;;;;16.30;99.90;;;;;;5106864;28;20123;-88
2022/07/12 06:23:03;;;;;;;;;;;16.40;99.90;;;;;;5104765;28;20216;-90
2022/07/12 06:25:30;;;;;;;;;;;16.50;99.90;;;;;;5107336;28;19920;-87
2022/07/12 06:28:05;;;;;;;;;;;16.60;99.90;;;;;;5104399;28;19920;-92
2022/07/12 06:30:46;;;;;;;;;;;16.70;99.90;;;;;;5107438;28;19927;-90
2022/07/12 06:33:14;;;;;;;;;;;16.80;99.90;;;;;;5105553;28;19920;-90
2022/07/12 06:35:41;;;;;;;;;;;16.90;99.90;;;;;;5106364;28;19942;-86
2022/07/12 06:38:08;;;;;;;;;;;16.90;99.90;;;;;;5086974;28;19944;-87
2022/07/12 06:40:35;;;;;;;;;;;17.00;99.90;;;;;;5089056;28;19927;-85
2022/07/12 06:43:02;;;;;;;;;;;17.10;99.90;;;;;;5099395;28;19948;-86
2022/07/12 06:45:28;;;;;;;;;;;17.10;99.90;;;;;;5092137;28;19920;-87
2022/07/12 06:47:55;;;;;;;;;;;17.10;99.90;;;;;;5094440;28;19921;-85
2022/07/12 06:50:23;;;;;;;;;;;17.10;99.90;;;;;;5084672;28;19920;-86
2022/07/12 06:52:50;;;;;;;;;;;17.10;99.90;;;;;;5093615;28;20292;-86
2022/07/12 06:55:17;;;;;;;;;;;17.10;99.90;;;;;;5089427;28;19920;-86
2022/07/12 06:57:44;;;;;;;;;;;17.20;99.90;;;;;;5097692;28;19944;-87
2022/07/12 07:00:11;;;;;;;;;;;17.30;99.90;;;;;;5098363;28;19927;-87
2022/07/12 07:02:38;;;;;;;;;;;17.50;99.90;;;;;;5096647;28;19928;-86
2022/07/12 07:05:06;;;;;;;;;;;17.60;99.90;;;;;;5089947;28;19929;-88
2022/07/12 07:07:34;;;;;;;;;;;17.80;99.90;;;;;;5099240;28;19927;-88
2022/07/12 07:10:02;;;;;;;;;;;17.90;99.90;;;;;;5093392;28;19920;-87
2022/07/12 07:12:28;;;;;;;;;;;18.00;99.90;;;;;;5096746;28;19927;-88
2022/07/12 07:14:55;;;;;;;;;;;18.00;99.90;;;;;;5094997;28;19920;-88
2022/07/12 07:17:22;;;;;;;;;;;18.20;99.90;;;;;;5102055;28;19921;-87
2022/07/12 07:19:49;;;;;;;;;;;18.30;99.90;;;;;;5088863;28;19927;-86
2022/07/12 07:22:15;;;;;;;;;;;18.40;99.90;;;;;;5090437;28;19989;-86
2022/07/12 07:24:43;;;;;;;;;;;18.50;99.90;;;;;;5094463;28;20253;-86
2022/07/12 07:27:10;;;;;;;;;;;18.50;99.90;;;;;;5095740;28;19948;-86
2022/07/12 07:32:21;;;;;;;;;;;18.50;99.90;;;;;;5100783;28;19958;-86
2022/07/12 07:34:48;;;;;;;;;;;18.40;99.90;;;;;;5107164;28;19924;-86
2022/07/12 07:37:15;;;;;;;;;;;18.40;99.90;;;;;;5097830;28;19979;-86
2022/07/12 07:39:41;;;;;;;;;;;18.30;99.90;;;;;;5086911;28;20176;-86
2022/07/12 07:42:10;;;;;;;;;;;18.20;99.90;;;;;;5088532;28;19951;-88
2022/07/12 07:44:36;;;;;;;;;;;18.20;99.90;;;;;;5086921;28;19927;-86
2022/07/12 07:47:03;;;;;;;;;;;18.10;99.90;;;;;;5094778;28;19928;-85
2022/07/12 07:49:30;;;;;;;;;;;18.10;99.90;;;;;;5085883;28;19939;-85
2022/07/12 07:51:57;;;;;;;;;;;18.10;99.90;;;;;;5085975;28;19944;-86
2022/07/12 07:54:23;;;;;;;;;;;18.10;99.90;;;;;;5099186;28;20235;-86
2022/07/12 07:56:51;;;;;;;;;;;18.20;99.90;;;;;;5101680;28;19920;-85
2022/07/12 07:59:20;;;;;;;;;;;18.20;99.90;;;;;;5088052;28;19920;-86
2022/07/12 08:01:52;;;;;;;;;;;18.30;99.90;;;;;;5087531;28;19947;-86
2022/07/12 08:04:34;;;;;;;;;;;18.30;99.90;;;;;;5091801;28;19927;-86
2022/07/12 08:07:01;;;;;;;;;;;18.40;99.90;;;;;;5099894;28;19925;-87
2022/07/12 08:09:27;;;;;;;;;;;18.40;99.90;;;;;;5086968;28;19921;-86
2022/07/12 08:11:54;;;;;;;;;;;18.50;99.90;;;;;;5086755;28;19924;-86
2022/07/12 08:14:23;;;;;;;;;;;18.60;99.90;;;;;;5089647;28;20233;-85
2022/07/12 08:16:50;;;;;;;;;;;18.70;99.90;;;;;;5103927;28;19920;-86
2022/07/12 08:19:18;;;;;;;;;;;18.80;99.90;;;;;;5105508;28;19920;-84
2022/07/12 08:21:44;;;;;;;;;;;19.00;99.90;;;;;;5094879;28;19929;-87
2022/07/12 08:24:11;;;;;;;;;;;19.20;99.90;;;;;;5095469;28;19927;-86
2022/07/12 08:26:39;;;;;;;;;;;19.30;99.90;;;;;;5092353;28;19944;-86
2022/07/12 08:29:06;;;;;;;;;;;19.40;99.90;;;;;;5093327;28;19958;-86
2022/07/12 08:31:34;;;;;;;;;;;19.50;99.90;;;;;;5095854;28;20154;-86
2022/07/12 08:34:03;;;;;;;;;;;19.50;99.90;;;;;;5091824;28;19967;-87
2022/07/12 08:36:30;;;;;;;;;;;19.50;99.90;;;;;;5092396;28;19942;-86
2022/07/12 08:38:57;;;;;;;;;;;19.50;99.90;;;;;;5092605;28;19951;-87
2022/07/12 08:41:24;;;;;;;;;;;19.50;99.90;;;;;;5095079;28;20223;-87
2022/07/12 08:43:50;;;;;;;;;;;19.50;99.90;;;;;;5092263;28;19928;-88
2022/07/12 08:46:17;;;;;;;;;;;19.40;99.90;;;;;;5092837;28;19947;-86
2022/07/12 08:48:45;;;;;;;;;;;19.40;99.90;;;;;;5095293;28;19991;-86
2022/07/12 08:51:13;;;;;;;;;;;19.40;99.90;;;;;;5095689;28;19959;-87
2022/07/12 08:53:39;;;;;;;;;;;19.50;99.90;;;;;;5093484;28;19932;-86
2022/07/12 08:56:07;;;;;;;;;;;19.50;99.90;;;;;;5102757;28;19920;-87
2022/07/12 08:58:34;;;;;;;;;;;19.60;99.90;;;;;;5107181;28;19920;-88
2022/07/12 09:01:01;;;;;;;;;;;19.70;99.90;;;;;;5101626;28;19921;-87
2022/07/12 09:03:28;;;;;;;;;;;19.70;99.90;;;;;;5084758;28;19921;-86
2022/07/12 09:05:57;;;;;;;;;;;19.70;99.90;;;;;;5102702;28;19920;-91
2022/07/12 09:08:28;;;;;;;;;;;19.70;99.90;;;;;;5095514;28;19920;-86
2022/07/12 09:11:00;;;;;;;;;;;19.70;99.90;;;;;;5088644;28;20215;-88
2022/07/12 09:13:45;;;;;;;;;;;19.70;99.90;;;;;;5086796;28;19980;-87
2022/07/12 09:16:15;;;;;;;;;;;19.80;99.90;;;;;;5085755;28;20250;-87
2022/07/12 09:18:42;;;;;;;;;;;19.90;99.90;;;;;;5086344;28;19921;-87
2022/07/12 09:21:11;;;;;;;;;;;20.10;99.90;;;;;;5089846;28;19920;-91
2022/07/12 09:23:38;;;;;;;;;;;20.50;99.90;;;;;;5092629;28;19920;-84
2022/07/12 09:26:08;;;;;;;;;;;20.70;99.90;;;;;;5095040;28;19921;-86
2022/07/12 09:28:35;;;;;;;;;;;20.80;99.90;;;;;;5086779;28;19927;-87
2022/07/12 09:31:02;;;;;;;;;;;20.80;99.90;;;;;;5092659;28;19920;-86
2022/07/12 09:36:14;;;;;;;;;;;20.80;99.90;;;;;;5094307;28;19935;-87
2022/07/12 09:38:50;;;;;;;;;;;20.60;99.90;;;;;;5092005;28;22261;-86
2022/07/12 09:41:17;;;;;;;;;;;20.50;99.90;;;;;;5091170;28;19936;-86
2022/07/12 09:43:44;;;;;;;;;;;20.50;99.90;;;;;;5092237;28;19921;-86
2022/07/12 09:46:11;;;;;;;;;;;20.60;99.90;;;;;;5097348;28;19928;-87
2022/07/12 09:48:38;;;;;;;;;;;20.60;99.90;;;;;;5096979;28;19952;-88
2022/07/12 09:51:06;;;;;;;;;;;20.60;99.90;;;;;;5102185;28;19931;-89
2022/07/12 09:53:45;;;;;;;;;;;20.50;99.90;;;;;;5093520;28;19966;-88
2022/07/12 09:56:12;;;;;;;;;;;20.50;99.90;;;;;;5108417;28;19920;-88
2022/07/12 09:58:40;;;;;;;;;;;20.50;99.90;;;;;;5106209;28;19927;-88
2022/07/12 10:01:07;;;;;;;;;;;20.70;99.90;;;;;;5108213;28;19965;-87
2022/07/12 10:03:36;;;;;;;;;;;20.90;99.90;;;;;;5108089;28;20096;-89
2022/07/12 10:06:03;;;;;;;;;;;21.20;99.90;;;;;;5095659;28;19920;-87
2022/07/12 10:08:30;;;;;;;;;;;21.40;99.90;;;;;;5098988;28;20275;-88
2022/07/12 10:10:59;;;;;;;;;;;21.70;99.90;;;;;;5097007;28;19920;-89
2022/07/12 10:13:26;;;;;;;;;;;21.80;99.90;;;;;;5099271;28;19948;-87
2022/07/12 10:15:59;;;;;;;;;;;21.80;99.90;;;;;;5097424;28;19928;-87
2022/07/12 10:18:25;;;;;;;;;;;21.70;99.90;;;;;;5095062;28;19920;-87
2022/07/12 10:20:52;;;;;;;;;;;21.60;99.90;;;;;;5097401;28;20242;-87
2022/07/12 10:23:31;;;;;;;;;;;21.60;99.90;;;;;;5105443;28;19920;-87
2022/07/12 10:25:59;;;;;;;;;;;21.80;99.90;;;;;;5095556;28;19920;-88
2022/07/12 10:28:55;;;;;;;;;;;21.90;99.90;;;;;;5095234;28;19927;-87
2022/07/12 10:31:22;;;;;;;;;;;22.20;99.90;;;;;;5099591;28;19927;-87
2022/07/12 10:33:59;;;;;;;;;;;22.30;99.90;;;;;;5097799;28;20265;-86
2022/07/12 10:36:26;;;;;;;;;;;22.40;99.90;;;;;;5098993;28;20068;-88
2022/07/12 10:39:12;;;;;;;;;;;22.60;99.90;;;;;;5097316;28;19920;-86
2022/07/12 10:41:42;;;;;;;;;;;22.70;99.90;;;;;;5099032;28;20271;-87
2022/07/12 10:44:09;;;;;;;;;;;22.80;99.90;;;;;;5101229;28;19920;-89
2022/07/12 10:47:00;;;;;;;;;;;22.80;99.90;;;;;;5102544;28;19921;-86
2022/07/12 10:49:28;;;;;;;;;;;22.90;99.90;;;;;;5096388;28;19920;-86
2022/07/12 10:52:14;;;;;;;;;;;23.20;99.90;;;;;;5097503;28;19933;-87
2022/07/12 10:54:41;;;;;;;;;;;23.30;99.90;;;;;;5097706;28;19927;-85
2022/07/12 10:57:09;;;;;;;;;;;23.40;99.90;;;;;;5101484;28;19920;-88
2022/07/12 10:59:37;;;;;;;;;;;23.50;99.90;;;;;;5101483;28;19944;-89
2022/07/12 11:02:05;;;;;;;;;;;23.60;99.90;;;;;;5103310;28;19920;-88
2022/07/12 11:04:33;;;;;;;;;;;23.60;99.90;;;;;;5112041;28;19920;-86
2022/07/12 11:07:02;;;;;;;;;;;23.80;99.90;;;;;;5116596;28;19916;-89
2022/07/12 11:09:33;;;;;;;;;;;24.00;99.90;;;;;;5101427;28;19920;-89
2022/07/12 11:11:59;;;;;;;;;;;24.10;99.90;;;;;;5092422;28;19940;-88
2022/07/12 11:14:30;;;;;;;;;;;24.10;99.90;;;;;;5089543;28;19948;-88
2022/07/12 11:16:57;;;;;;;;;;;24.20;99.90;;;;;;5091412;28;19935;-89
2022/07/12 11:19:25;;;;;;;;;;;24.20;99.90;;;;;;5092882;28;19921;-88
2022/07/12 11:21:56;;;;;;;;;;;24.30;99.90;;;;;;5095959;28;19924;-89
2022/07/12 11:24:24;;;;;;;;;;;24.50;99.90;;;;;;5100948;28;19943;-89
2022/07/12 11:26:51;;;;;;;;;;;24.70;99.90;;;;;;5096664;28;20100;-89
2022/07/12 11:29:18;;;;;;;;;;;24.90;99.90;;;;;;5096597;28;19927;-88
2022/07/12 11:31:46;;;;;;;;;;;24.90;99.90;;;;;;5102495;28;19925;-88
2022/07/12 11:34:23;;;;;;;;;;;25.00;99.90;;;;;;5096593;28;19928;-86
2022/07/12 11:36:52;;;;;;;;;;;25.20;99.90;;;;;;5104925;28;19983;-91
2022/07/12 11:39:30;;;;;;;;;;;25.20;99.90;;;;;;5111023;28;20122;-89
2022/07/12 11:41:57;;;;;;;;;;;25.20;99.90;;;;;;5109988;28;19954;-91
2022/07/12 11:44:28;;;;;;;;;;;25.30;99.90;;;;;;5104947;28;19942;-92
2022/07/12 11:46:56;;;;;;;;;;;25.50;99.90;;;;;;5087455;28;19920;-91
2022/07/12 11:49:23;;;;;;;;;;;25.70;99.90;;;;;;5107900;28;20297;-90
2022/07/12 11:51:52;;;;;;;;;;;25.80;99.90;;;;;;5120769;28;19920;-91
2022/07/12 11:54:25;;;;;;;;;;;25.80;99.90;;;;;;5110720;28;20211;-90
2022/07/12 11:57:05;;;;;;;;;;;25.90;99.90;;;;;;5117916;28;19948;-92
2022/07/12 11:59:32;;;;;;;;;;;26.00;99.90;;;;;;5111819;28;20234;-92
2022/07/12 12:02:08;;;;;;;;;;;26.10;99.90;;;;;;5109313;28;19920;-91
2022/07/12 12:04:45;;;;;;;;;;;26.10;99.90;;;;;;5095412;28;19920;-91
2022/07/12 12:07:15;;;;;;;;;;;26.30;99.90;;;;;;5116643;28;19920;-90
2022/07/12 12:10:02;;;;;;;;;;;26.20;99.90;;;;;;5089901;28;20005;-92
2022/07/12 12:12:38;;;;;;;;;;;26.30;99.90;;;;;;5098443;28;19958;-91
2022/07/12 12:15:06;;;;;;;;;;;26.40;99.90;;;;;;5100351;28;19920;-91
2022/07/12 12:17:38;;;;;;;;;;;26.60;99.90;;;;;;5107262;28;19933;-91
2022/07/12 12:20:12;;;;;;;;;;;26.70;99.90;;;;;;5102180;28;19922;-91
2022/07/12 12:22:40;;;;;;;;;;;26.70;99.90;;;;;;5119500;28;19930;-93
2022/07/12 12:25:14;;;;;;;;;;;26.70;99.90;;;;;;5140389;27;19959;-93
2022/07/12 12:27:42;;;;;;;;;;;26.80;99.90;;;;;;5140820;27;19923;-92
2022/07/12 12:30:18;;;;;;;;;;;26.90;99.20;;;;;;5126593;27;19984;-92
2022/07/12 12:32:49;;;;;;;;;;;26.80;98.90;;;;;;5125347;27;19911;-93
2022/07/12 12:35:17;;;;;;;;;;;26.80;99.00;;;;;;5110296;28;19908;-93
2022/07/12 12:37:53;;;;;;;;;;;26.80;98.80;;;;;;5119029;28;19908;-92
2022/07/12 12:40:24;;;;;;;;;;;26.90;99.10;;;;;;5114323;27;19908;-94
2022/07/12 12:42:55;;;;;;;;;;;27.00;99.00;;;;;;5102129;28;20125;-94
2022/07/12 12:48:02;;;;;;;;;;;27.50;99.20;;;;;;5122874;28;19927;-69
2022/07/12 12:50:38;;;;;;;;;;;27.60;97.20;;;;;;5123533;28;19927;-69
2022/07/12 12:53:09;;;;;;;;;;;27.70;97.50;;;;;;5122631;28;20266;-69
2022/07/12 12:55:36;;;;;;;;;;;27.90;97.10;;;;;;5122723;28;19926;-70
2022/07/12 12:58:02;;;;;;;;;;;27.90;95.80;;;;;;5114955;28;20194;-69
2022/07/12 13:00:29;;;;;;;;;;;28.10;96.80;;;;;;5103279;28;20352;-70
2022/07/12 13:02:58;;;;;;;;;;;28.10;95.00;;;;;;5108582;28;19942;-69
2022/07/12 13:05:27;;;;;;;;;;;28.20;95.20;;;;;;5108653;28;19955;-69
2022/07/12 13:07:53;;;;;;;;;;;28.00;94.90;;;;;;5113463;27;19965;-69
2022/07/12 13:11:18;;;;;;;;;;;28.00;96.00;;;;;;5119220;27;19998;-69
2022/07/12 13:13:40;;;;;;;;;;;28.30;95.70;;;;;;5045646;28;19925;-69
2022/07/12 13:16:07;;;;;;;;;;;28.30;94.70;;;;;;5052166;28;19956;-70
2022/07/12 13:18:34;;;;;;;;;;;28.30;95.60;;;;;;5036305;28;19927;-69
2022/07/12 13:21:02;;;;;;;;;;;28.20;94.60;;;;;;5064446;28;20207;-69
2022/07/12 13:23:28;;;;;;;;;;;28.30;95.40;;;;;;5114572;28;19955;-69
2022/07/12 13:25:55;;;;;;;;;;;28.40;93.30;;;;;;5123923;28;19951;-69
2022/07/12 13:28:22;;;;;;;;;;;28.50;93.40;;;;;;5116794;28;19920;-69
2022/07/12 13:30:48;;;;;;;;;;;28.70;93.20;;;;;;5101940;28;19927;-69
2022/07/12 13:33:15;;;;;;;;;;;28.80;92.90;;;;;;5117216;28;19927;-69
2022/07/12 13:35:42;;;;;;;;;;;28.70;92.10;;;;;;5123006;28;19920;-69
2022/07/12 13:38:10;;;;;;;;;;;28.70;92.30;;;;;;5123138;28;19983;-69
2022/07/12 13:40:37;;;;;;;;;;;28.80;92.10;;;;;;5116146;28;20258;-69
2022/07/12 13:43:04;;;;;;;;;;;29.10;92.40;;;;;;5123008;28;19920;-69
2022/07/12 13:45:30;;;;;;;;;;;29.30;91.90;;;;;;5117061;28;20096;-71
2022/07/12 13:47:57;;;;;;;;;;;29.30;91.40;;;;;;5122649;28;19920;-68
2022/07/12 13:50:24;;;;;;;;;;;29.40;91.40;;;;;;5123401;28;20097;-68
2022/07/12 13:52:51;;;;;;;;;;;29.50;90.80;;;;;;5121446;28;19926;-69
2022/07/12 13:55:19;;;;;;;;;;;29.40;91.00;;;;;;5123455;28;20278;-68
2022/07/12 13:57:47;;;;;;;;;;;29.60;91.10;;;;;;5122776;28;19935;-68
2022/07/12 14:00:14;;;;;;;;;;;29.80;90.60;;;;;;5103335;28;19952;-69
2022/07/12 14:02:41;;;;;;;;;;;30.00;88.60;;;;;;5112323;28;19919;-69
2022/07/12 14:05:09;;;;;;;;;;;29.90;89.60;;;;;;5112904;28;20275;-69
2022/07/12 14:07:37;;;;;;;;;;;30.10;89.80;;;;;;5107733;28;19935;-69
2022/07/12 14:10:04;;;;;;;;;;;30.30;87.80;;;;;;5117569;28;19920;-69
2022/07/12 14:12:32;;;;;;;;;;;30.40;87.80;;;;;;5118629;28;19979;-69
2022/07/12 14:17:44;;;;;;;;;;;30.10;88.10;;;;;;5107145;28;19927;-68
2022/07/12 14:20:12;;;;;;;;;;;30.30;88.90;;;;;;5124501;28;19982;-69
2022/07/12 14:22:38;;;;;;;;;;;30.20;89.20;;;;;;5127124;28;19919;-69
2022/07/12 14:25:06;;;;;;;;;;;30.30;90.00;;;;;;5126934;28;19951;-68
2022/07/12 14:27:34;;;;;;;;;;;30.40;89.50;;;;;;5123824;28;20111;-69
2022/07/12 14:30:01;;;;;;;;;;;30.40;88.70;;;;;;5105907;28;19928;-69
2022/07/12 14:32:27;;;;;;;;;;;30.60;88.80;;;;;;5113256;28;19991;-68
2022/07/12 14:34:54;;;;;;;;;;;30.70;88.80;;;;;;5124855;28;20164;-68
2022/07/12 14:37:21;;;;;;;;;;;30.80;90.20;;;;;;5127494;28;20218;-69
2022/07/12 14:39:48;;;;;;;;;;;30.90;86.30;;;;;;5120568;28;19994;-69
2022/07/12 14:42:14;;;;;;;;;;;30.90;86.40;;;;;;5126745;28;20207;-68